sensor_id;sensor_type;location;lat;lon;timestamp;P1;durP1;ratioP1;P2;durP2;ratioP2
38901;SDS011;24661;53.566;9.910;2023-03-20T00:00:01;68.43;;;27.07;;
38901;SDS011;24661;53.566;9.910;2023-03-20T00:02:32;46.20;;;23.47;;
38901;SDS011;24661;53.566;9.910;2023-03-20T00:04:57;52.47;;;25.03;;
38901;SDS011;24661;53.566;9.910;2023-03-20T00:07:24;54.13;;;25.43;;
38901;SDS011;24661;53.566;9.910;2023-03-20T00:09:49;58.67;;;25.20;;
38901;SDS011;24661;53.566;9.910;2023-03-20T00:12:17;61.60;;;26.27;;
38901;SDS011;24661;53.566;9.910;2023-03-20T00:14:49;57.70;;;24.73;;
38901;SDS011;24661;53.566;9.910;2023-03-20T00:17:18;58.27;;;24.67;;
38901;SDS011;24661;53.566;9.910;2023-03-20T00:19:44;59.83;;;24.40;;
38901;SDS011;24661;53.566;9.910;2023-03-20T00:22:10;47.47;;;23.00;;
38901;SDS011;24661;53.566;9.910;2023-03-20T00:24:36;56.10;;;25.57;;
38901;SDS011;24661;53.566;9.910;2023-03-20T00:27:02;59.10;;;24.13;;
38901;SDS011;24661;53.566;9.910;2023-03-20T00:29:30;47.03;;;22.70;;
38901;SDS011;24661;53.566;9.910;2023-03-20T00:31:56;56.97;;;24.23;;
38901;SDS011;24661;53.566;9.910;2023-03-20T00:34:23;54.57;;;23.53;;
38901;SDS011;24661;53.566;9.910;2023-03-20T00:36:51;51.70;;;22.23;;
38901;SDS011;24661;53.566;9.910;2023-03-20T00:39:18;52.60;;;24.77;;
38901;SDS011;24661;53.566;9.910;2023-03-20T00:41:47;48.83;;;24.47;;
38901;SDS011;24661;53.566;9.910;2023-03-20T00:44:26;52.63;;;23.90;;
38901;SDS011;24661;53.566;9.910;2023-03-20T00:47:18;44.43;;;22.07;;
38901;SDS011;24661;53.566;9.910;2023-03-20T00:49:46;45.67;;;22.17;;
38901;SDS011;24661;53.566;9.910;2023-03-20T00:52:14;48.83;;;23.07;;
38901;SDS011;24661;53.566;9.910;2023-03-20T00:54:42;54.73;;;24.10;;
38901;SDS011;24661;53.566;9.910;2023-03-20T00:57:08;42.80;;;22.27;;
38901;SDS011;24661;53.566;9.910;2023-03-20T01:00:19;42.80;;;23.10;;
38901;SDS011;24661;53.566;9.910;2023-03-20T01:02:37;44.13;;;22.43;;
38901;SDS011;24661;53.566;9.910;2023-03-20T01:05:03;45.00;;;21.60;;
38901;SDS011;24661;53.566;9.910;2023-03-20T01:07:29;50.80;;;23.60;;
38901;SDS011;24661;53.566;9.910;2023-03-20T01:09:55;46.83;;;21.87;;
38901;SDS011;24661;53.566;9.910;2023-03-20T01:12:21;40.03;;;20.50;;
38901;SDS011;24661;53.566;9.910;2023-03-20T01:14:51;46.57;;;22.80;;
38901;SDS011;24661;53.566;9.910;2023-03-20T01:17:22;43.70;;;21.27;;
38901;SDS011;24661;53.566;9.910;2023-03-20T01:19:49;46.43;;;22.47;;
38901;SDS011;24661;53.566;9.910;2023-03-20T01:22:15;42.57;;;21.00;;
38901;SDS011;24661;53.566;9.910;2023-03-20T01:24:43;40.63;;;19.80;;
38901;SDS011;24661;53.566;9.910;2023-03-20T01:27:13;46.90;;;21.90;;
38901;SDS011;24661;53.566;9.910;2023-03-20T01:29:39;43.67;;;21.23;;
38901;SDS011;24661;53.566;9.910;2023-03-20T01:32:13;43.77;;;21.00;;
38901;SDS011;24661;53.566;9.910;2023-03-20T01:34:40;49.97;;;22.87;;
38901;SDS011;24661;53.566;9.910;2023-03-20T01:37:08;40.17;;;20.50;;
38901;SDS011;24661;53.566;9.910;2023-03-20T01:39:37;43.33;;;20.67;;
38901;SDS011;24661;53.566;9.910;2023-03-20T01:42:03;43.80;;;20.80;;
38901;SDS011;24661;53.566;9.910;2023-03-20T01:44:32;44.03;;;21.87;;
38901;SDS011;24661;53.566;9.910;2023-03-20T01:47:00;49.70;;;23.23;;
38901;SDS011;24661;53.566;9.910;2023-03-20T01:51:53;48.73;;;21.97;;
38901;SDS011;24661;53.566;9.910;2023-03-20T01:57:05;49.97;;;21.57;;
38901;SDS011;24661;53.566;9.910;2023-03-20T02:02:44;48.93;;;22.47;;
38901;SDS011;24661;53.566;9.910;2023-03-20T02:05:12;47.13;;;22.03;;
38901;SDS011;24661;53.566;9.910;2023-03-20T02:07:40;50.23;;;23.13;;
38901;SDS011;24661;53.566;9.910;2023-03-20T02:10:12;51.13;;;22.83;;
38901;SDS011;24661;53.566;9.910;2023-03-20T02:12:40;50.17;;;21.90;;
38901;SDS011;24661;53.566;9.910;2023-03-20T02:15:07;48.83;;;21.87;;
38901;SDS011;24661;53.566;9.910;2023-03-20T02:17:33;54.13;;;21.37;;
38901;SDS011;24661;53.566;9.910;2023-03-20T02:31:12;47.73;;;21.00;;
38901;SDS011;24661;53.566;9.910;2023-03-20T02:39:47;52.10;;;20.70;;
38901;SDS011;24661;53.566;9.910;2023-03-20T02:45:12;42.67;;;19.07;;
38901;SDS011;24661;53.566;9.910;2023-03-20T03:01:25;29.03;;;12.27;;
38901;SDS011;24661;53.566;9.910;2023-03-20T03:03:59;25.43;;;12.63;;
38901;SDS011;24661;53.566;9.910;2023-03-20T03:06:29;26.90;;;12.50;;
38901;SDS011;24661;53.566;9.910;2023-03-20T03:09:01;27.07;;;11.60;;
38901;SDS011;24661;53.566;9.910;2023-03-20T03:11:35;29.00;;;12.30;;
38901;SDS011;24661;53.566;9.910;2023-03-20T03:14:06;25.07;;;11.67;;
38901;SDS011;24661;53.566;9.910;2023-03-20T03:16:39;22.27;;;10.63;;
38901;SDS011;24661;53.566;9.910;2023-03-20T03:19:08;21.87;;;10.50;;
38901;SDS011;24661;53.566;9.910;2023-03-20T03:21:39;22.37;;;9.90;;
38901;SDS011;24661;53.566;9.910;2023-03-20T03:24:06;20.93;;;10.27;;
38901;SDS011;24661;53.566;9.910;2023-03-20T03:27:02;17.60;;;8.73;;
38901;SDS011;24661;53.566;9.910;2023-03-20T03:29:35;24.03;;;11.93;;
38901;SDS011;24661;53.566;9.910;2023-03-20T03:32:04;16.03;;;9.23;;
38901;SDS011;24661;53.566;9.910;2023-03-20T03:34:31;15.97;;;8.83;;
38901;SDS011;24661;53.566;9.910;2023-03-20T03:37:06;17.80;;;9.50;;
38901;SDS011;24661;53.566;9.910;2023-03-20T03:39:48;19.03;;;8.60;;
38901;SDS011;24661;53.566;9.910;2023-03-20T03:45:18;18.17;;;9.47;;
38901;SDS011;24661;53.566;9.910;2023-03-20T03:47:53;17.67;;;9.57;;
38901;SDS011;24661;53.566;9.910;2023-03-20T03:50:27;16.03;;;9.07;;
38901;SDS011;24661;53.566;9.910;2023-03-20T03:52:59;15.30;;;8.63;;
38901;SDS011;24661;53.566;9.910;2023-03-20T03:55:31;18.13;;;9.27;;
38901;SDS011;24661;53.566;9.910;2023-03-20T03:58:04;18.83;;;9.17;;
38901;SDS011;24661;53.566;9.910;2023-03-20T04:00:35;16.80;;;9.03;;
38901;SDS011;24661;53.566;9.910;2023-03-20T04:03:05;17.23;;;9.90;;
38901;SDS011;24661;53.566;9.910;2023-03-20T04:05:32;16.97;;;9.17;;
38901;SDS011;24661;53.566;9.910;2023-03-20T04:08:01;13.80;;;8.47;;
38901;SDS011;24661;53.566;9.910;2023-03-20T04:10:28;19.27;;;9.03;;
38901;SDS011;24661;53.566;9.910;2023-03-20T04:12:54;15.60;;;8.87;;
38901;SDS011;24661;53.566;9.910;2023-03-20T04:15:19;16.00;;;9.33;;
38901;SDS011;24661;53.566;9.910;2023-03-20T04:17:45;15.83;;;9.30;;
38901;SDS011;24661;53.566;9.910;2023-03-20T04:20:12;20.30;;;10.40;;
38901;SDS011;24661;53.566;9.910;2023-03-20T04:22:38;18.77;;;9.40;;
38901;SDS011;24661;53.566;9.910;2023-03-20T04:25:05;18.77;;;10.27;;
38901;SDS011;24661;53.566;9.910;2023-03-20T04:27:32;17.70;;;9.73;;
38901;SDS011;24661;53.566;9.910;2023-03-20T04:29:57;19.57;;;9.97;;
38901;SDS011;24661;53.566;9.910;2023-03-20T04:32:23;20.93;;;10.90;;
38901;SDS011;24661;53.566;9.910;2023-03-20T04:34:49;15.53;;;10.17;;
38901;SDS011;24661;53.566;9.910;2023-03-20T04:37:14;15.83;;;8.13;;
38901;SDS011;24661;53.566;9.910;2023-03-20T04:39:40;14.10;;;8.50;;
38901;SDS011;24661;53.566;9.910;2023-03-20T04:42:07;13.23;;;8.33;;
38901;SDS011;24661;53.566;9.910;2023-03-20T04:44:32;12.37;;;7.43;;
38901;SDS011;24661;53.566;9.910;2023-03-20T04:46:58;11.97;;;6.53;;
38901;SDS011;24661;53.566;9.910;2023-03-20T04:49:24;12.77;;;6.47;;
38901;SDS011;24661;53.566;9.910;2023-03-20T04:51:50;14.40;;;6.97;;
38901;SDS011;24661;53.566;9.910;2023-03-20T04:54:16;15.37;;;7.23;;
38901;SDS011;24661;53.566;9.910;2023-03-20T04:56:42;14.47;;;7.87;;
38901;SDS011;24661;53.566;9.910;2023-03-20T04:59:07;14.63;;;7.97;;
38901;SDS011;24661;53.566;9.910;2023-03-20T05:01:33;13.47;;;6.03;;
38901;SDS011;24661;53.566;9.910;2023-03-20T05:03:58;9.87;;;6.03;;
38901;SDS011;24661;53.566;9.910;2023-03-20T05:06:28;11.10;;;6.63;;
38901;SDS011;24661;53.566;9.910;2023-03-20T05:08:58;11.80;;;7.23;;
38901;SDS011;24661;53.566;9.910;2023-03-20T05:11:24;12.37;;;7.23;;
38901;SDS011;24661;53.566;9.910;2023-03-20T05:13:50;14.07;;;7.17;;
38901;SDS011;24661;53.566;9.910;2023-03-20T05:16:16;10.60;;;7.77;;
38901;SDS011;24661;53.566;9.910;2023-03-20T05:18:42;11.00;;;6.70;;
38901;SDS011;24661;53.566;9.910;2023-03-20T05:21:07;11.47;;;7.50;;
38901;SDS011;24661;53.566;9.910;2023-03-20T05:23:33;16.03;;;8.43;;
38901;SDS011;24661;53.566;9.910;2023-03-20T05:25:59;15.13;;;9.40;;
38901;SDS011;24661;53.566;9.910;2023-03-20T05:28:25;17.60;;;10.20;;
38901;SDS011;24661;53.566;9.910;2023-03-20T05:30:51;13.73;;;8.87;;
38901;SDS011;24661;53.566;9.910;2023-03-20T05:33:16;19.67;;;9.77;;
38901;SDS011;24661;53.566;9.910;2023-03-20T05:35:42;12.97;;;8.57;;
38901;SDS011;24661;53.566;9.910;2023-03-20T05:38:07;17.17;;;9.60;;
38901;SDS011;24661;53.566;9.910;2023-03-20T05:40:33;13.10;;;8.50;;
38901;SDS011;24661;53.566;9.910;2023-03-20T05:42:58;14.07;;;8.73;;
38901;SDS011;24661;53.566;9.910;2023-03-20T05:45:24;13.90;;;8.40;;
38901;SDS011;24661;53.566;9.910;2023-03-20T05:47:50;11.97;;;8.03;;
38901;SDS011;24661;53.566;9.910;2023-03-20T05:50:15;13.83;;;7.93;;
38901;SDS011;24661;53.566;9.910;2023-03-20T05:52:41;14.07;;;7.20;;
38901;SDS011;24661;53.566;9.910;2023-03-20T05:55:06;14.53;;;7.30;;
38901;SDS011;24661;53.566;9.910;2023-03-20T05:57:32;12.37;;;7.43;;
38901;SDS011;24661;53.566;9.910;2023-03-20T05:59:58;13.80;;;8.27;;
38901;SDS011;24661;53.566;9.910;2023-03-20T06:02:23;12.17;;;7.80;;
38901;SDS011;24661;53.566;9.910;2023-03-20T06:04:49;13.90;;;8.20;;
38901;SDS011;24661;53.566;9.910;2023-03-20T06:07:14;12.13;;;7.07;;
38901;SDS011;24661;53.566;9.910;2023-03-20T06:09:40;13.97;;;7.23;;
38901;SDS011;24661;53.566;9.910;2023-03-20T06:12:06;9.60;;;6.40;;
38901;SDS011;24661;53.566;9.910;2023-03-20T06:14:31;15.17;;;6.90;;
38901;SDS011;24661;53.566;9.910;2023-03-20T06:16:57;11.77;;;6.60;;
38901;SDS011;24661;53.566;9.910;2023-03-20T06:19:24;9.40;;;6.70;;
38901;SDS011;24661;53.566;9.910;2023-03-20T06:21:50;14.13;;;7.53;;
38901;SDS011;24661;53.566;9.910;2023-03-20T06:24:15;10.97;;;7.33;;
38901;SDS011;24661;53.566;9.910;2023-03-20T06:26:41;10.20;;;6.70;;
38901;SDS011;24661;53.566;9.910;2023-03-20T06:29:07;8.93;;;6.57;;
38901;SDS011;24661;53.566;9.910;2023-03-20T06:31:33;15.67;;;7.73;;
38901;SDS011;24661;53.566;9.910;2023-03-20T06:33:58;9.70;;;6.57;;
38901;SDS011;24661;53.566;9.910;2023-03-20T06:36:24;10.60;;;7.00;;
38901;SDS011;24661;53.566;9.910;2023-03-20T06:38:50;10.03;;;6.47;;
38901;SDS011;24661;53.566;9.910;2023-03-20T06:41:16;11.47;;;7.17;;
38901;SDS011;24661;53.566;9.910;2023-03-20T06:43:42;11.80;;;7.43;;
38901;SDS011;24661;53.566;9.910;2023-03-20T06:46:08;9.83;;;6.20;;
38901;SDS011;24661;53.566;9.910;2023-03-20T06:48:34;10.10;;;6.83;;
38901;SDS011;24661;53.566;9.910;2023-03-20T06:51:00;8.17;;;5.93;;
38901;SDS011;24661;53.566;9.910;2023-03-20T06:53:26;10.80;;;6.40;;
38901;SDS011;24661;53.566;9.910;2023-03-20T06:55:51;10.77;;;6.50;;
38901;SDS011;24661;53.566;9.910;2023-03-20T06:58:18;13.87;;;6.67;;
38901;SDS011;24661;53.566;9.910;2023-03-20T07:00:44;10.57;;;6.37;;
38901;SDS011;24661;53.566;9.910;2023-03-20T07:03:10;8.00;;;5.47;;
38901;SDS011;24661;53.566;9.910;2023-03-20T07:05:36;10.20;;;6.13;;
38901;SDS011;24661;53.566;9.910;2023-03-20T07:08:03;10.27;;;5.63;;
38901;SDS011;24661;53.566;9.910;2023-03-20T07:10:29;8.20;;;5.53;;
38901;SDS011;24661;53.566;9.910;2023-03-20T07:12:55;10.73;;;6.47;;
38901;SDS011;24661;53.566;9.910;2023-03-20T07:15:20;10.37;;;6.97;;
38901;SDS011;24661;53.566;9.910;2023-03-20T07:17:46;7.67;;;5.67;;
38901;SDS011;24661;53.566;9.910;2023-03-20T07:20:12;7.83;;;6.00;;
38901;SDS011;24661;53.566;9.910;2023-03-20T07:22:38;11.07;;;5.70;;
38901;SDS011;24661;53.566;9.910;2023-03-20T07:25:05;11.83;;;5.97;;
38901;SDS011;24661;53.566;9.910;2023-03-20T07:27:33;8.93;;;5.77;;
38901;SDS011;24661;53.566;9.910;2023-03-20T07:30:00;9.27;;;5.87;;
38901;SDS011;24661;53.566;9.910;2023-03-20T07:32:26;12.60;;;5.80;;
38901;SDS011;24661;53.566;9.910;2023-03-20T07:34:52;9.90;;;6.10;;
38901;SDS011;24661;53.566;9.910;2023-03-20T07:37:17;11.63;;;6.27;;
38901;SDS011;24661;53.566;9.910;2023-03-20T07:39:43;9.30;;;5.67;;
38901;SDS011;24661;53.566;9.910;2023-03-20T07:42:09;7.50;;;5.40;;
38901;SDS011;24661;53.566;9.910;2023-03-20T07:44:35;10.60;;;5.53;;
38901;SDS011;24661;53.566;9.910;2023-03-20T07:47:00;10.23;;;6.47;;
38901;SDS011;24661;53.566;9.910;2023-03-20T07:49:26;10.30;;;6.40;;
38901;SDS011;24661;53.566;9.910;2023-03-20T07:51:52;8.80;;;4.63;;
38901;SDS011;24661;53.566;9.910;2023-03-20T07:54:21;9.17;;;4.83;;
38901;SDS011;24661;53.566;9.910;2023-03-20T07:56:47;7.73;;;5.33;;
38901;SDS011;24661;53.566;9.910;2023-03-20T07:59:12;9.30;;;5.63;;
38901;SDS011;24661;53.566;9.910;2023-03-20T08:01:38;8.87;;;4.97;;
38901;SDS011;24661;53.566;9.910;2023-03-20T08:04:04;6.07;;;4.57;;
38901;SDS011;24661;53.566;9.910;2023-03-20T08:06:30;9.30;;;4.87;;
38901;SDS011;24661;53.566;9.910;2023-03-20T08:08:57;7.93;;;5.00;;
38901;SDS011;24661;53.566;9.910;2023-03-20T08:11:23;8.43;;;5.10;;
38901;SDS011;24661;53.566;9.910;2023-03-20T08:13:49;12.10;;;5.43;;
38901;SDS011;24661;53.566;9.910;2023-03-20T08:16:14;7.07;;;5.00;;
38901;SDS011;24661;53.566;9.910;2023-03-20T08:18:40;7.53;;;5.40;;
38901;SDS011;24661;53.566;9.910;2023-03-20T08:21:06;7.47;;;5.20;;
38901;SDS011;24661;53.566;9.910;2023-03-20T08:23:32;9.73;;;5.13;;
38901;SDS011;24661;53.566;9.910;2023-03-20T08:25:57;9.27;;;5.00;;
38901;SDS011;24661;53.566;9.910;2023-03-20T08:28:23;10.30;;;5.33;;
38901;SDS011;24661;53.566;9.910;2023-03-20T08:30:49;7.33;;;4.53;;
38901;SDS011;24661;53.566;9.910;2023-03-20T08:33:16;9.17;;;4.70;;
38901;SDS011;24661;53.566;9.910;2023-03-20T08:35:42;8.03;;;4.47;;
38901;SDS011;24661;53.566;9.910;2023-03-20T08:38:09;7.57;;;5.00;;
38901;SDS011;24661;53.566;9.910;2023-03-20T08:40:39;8.07;;;4.83;;
38901;SDS011;24661;53.566;9.910;2023-03-20T08:43:05;12.73;;;5.57;;
38901;SDS011;24661;53.566;9.910;2023-03-20T08:45:31;11.40;;;6.30;;
38901;SDS011;24661;53.566;9.910;2023-03-20T08:47:57;8.63;;;6.40;;
38901;SDS011;24661;53.566;9.910;2023-03-20T08:50:23;8.90;;;6.33;;
38901;SDS011;24661;53.566;9.910;2023-03-20T08:52:48;8.27;;;5.90;;
38901;SDS011;24661;53.566;9.910;2023-03-20T08:55:14;9.23;;;5.87;;
38901;SDS011;24661;53.566;9.910;2023-03-20T08:57:40;8.33;;;5.40;;
38901;SDS011;24661;53.566;9.910;2023-03-20T09:00:07;11.17;;;5.83;;
38901;SDS011;24661;53.566;9.910;2023-03-20T09:02:34;8.87;;;5.20;;
38901;SDS011;24661;53.566;9.910;2023-03-20T09:05:01;10.67;;;5.40;;
38901;SDS011;24661;53.566;9.910;2023-03-20T09:07:26;8.73;;;5.50;;
38901;SDS011;24661;53.566;9.910;2023-03-20T09:09:52;8.20;;;5.13;;
38901;SDS011;24661;53.566;9.910;2023-03-20T09:12:17;6.73;;;4.97;;
38901;SDS011;24661;53.566;9.910;2023-03-20T09:14:43;8.47;;;5.10;;
38901;SDS011;24661;53.566;9.910;2023-03-20T09:17:09;9.17;;;5.00;;
38901;SDS011;24661;53.566;9.910;2023-03-20T09:19:34;14.23;;;9.40;;
38901;SDS011;24661;53.566;9.910;2023-03-20T09:22:03;10.17;;;5.77;;
38901;SDS011;24661;53.566;9.910;2023-03-20T09:24:29;9.67;;;5.80;;
38901;SDS011;24661;53.566;9.910;2023-03-20T09:26:56;9.23;;;5.80;;
38901;SDS011;24661;53.566;9.910;2023-03-20T09:29:22;7.70;;;5.53;;
38901;SDS011;24661;53.566;9.910;2023-03-20T09:31:48;6.30;;;4.90;;
38901;SDS011;24661;53.566;9.910;2023-03-20T09:34:14;8.50;;;5.47;;
38901;SDS011;24661;53.566;9.910;2023-03-20T09:36:40;12.93;;;6.27;;
38901;SDS011;24661;53.566;9.910;2023-03-20T09:39:05;8.87;;;5.67;;
38901;SDS011;24661;53.566;9.910;2023-03-20T09:41:31;10.97;;;5.63;;
38901;SDS011;24661;53.566;9.910;2023-03-20T09:49:47;13.77;;;6.97;;
38901;SDS011;24661;53.566;9.910;2023-03-20T09:55:21;16.53;;;6.70;;
38901;SDS011;24661;53.566;9.910;2023-03-20T09:57:53;12.07;;;6.90;;
38901;SDS011;24661;53.566;9.910;2023-03-20T10:00:28;11.80;;;6.13;;
38901;SDS011;24661;53.566;9.910;2023-03-20T10:07:58;12.10;;;6.67;;
38901;SDS011;24661;53.566;9.910;2023-03-20T10:10:30;15.20;;;6.93;;
38901;SDS011;24661;53.566;9.910;2023-03-20T10:18:42;12.87;;;7.00;;
38901;SDS011;24661;53.566;9.910;2023-03-20T10:21:30;11.90;;;6.90;;
38901;SDS011;24661;53.566;9.910;2023-03-20T10:24:04;11.57;;;5.80;;
38901;SDS011;24661;53.566;9.910;2023-03-20T10:26:33;9.80;;;6.63;;
38901;SDS011;24661;53.566;9.910;2023-03-20T10:29:00;11.63;;;6.57;;
38901;SDS011;24661;53.566;9.910;2023-03-20T10:42:33;13.67;;;6.77;;
38901;SDS011;24661;53.566;9.910;2023-03-20T10:47:42;9.47;;;6.30;;
38901;SDS011;24661;53.566;9.910;2023-03-20T10:50:14;10.07;;;5.90;;
38901;SDS011;24661;53.566;9.910;2023-03-20T10:52:43;9.50;;;6.10;;
38901;SDS011;24661;53.566;9.910;2023-03-20T10:55:15;11.67;;;6.30;;
38901;SDS011;24661;53.566;9.910;2023-03-20T10:57:46;10.27;;;5.80;;
38901;SDS011;24661;53.566;9.910;2023-03-20T11:00:20;9.33;;;5.60;;
38901;SDS011;24661;53.566;9.910;2023-03-20T11:02:48;8.73;;;5.60;;
38901;SDS011;24661;53.566;9.910;2023-03-20T11:05:22;14.60;;;6.43;;
38901;SDS011;24661;53.566;9.910;2023-03-20T11:07:59;14.37;;;6.43;;
38901;SDS011;24661;53.566;9.910;2023-03-20T11:10:26;10.93;;;5.70;;
38901;SDS011;24661;53.566;9.910;2023-03-20T11:12:52;9.97;;;5.77;;
38901;SDS011;24661;53.566;9.910;2023-03-20T11:15:22;11.67;;;6.13;;
38901;SDS011;24661;53.566;9.910;2023-03-20T11:18:09;14.47;;;6.23;;
38901;SDS011;24661;53.566;9.910;2023-03-20T11:20:49;11.73;;;6.50;;
38901;SDS011;24661;53.566;9.910;2023-03-20T11:23:28;10.10;;;5.13;;
38901;SDS011;24661;53.566;9.910;2023-03-20T11:25:58;9.80;;;6.10;;
38901;SDS011;24661;53.566;9.910;2023-03-20T11:28:30;9.77;;;5.80;;
38901;SDS011;24661;53.566;9.910;2023-03-20T11:33:43;8.67;;;5.77;;
38901;SDS011;24661;53.566;9.910;2023-03-20T11:36:32;12.00;;;5.47;;
38901;SDS011;24661;53.566;9.910;2023-03-20T11:39:12;11.13;;;5.70;;
38901;SDS011;24661;53.566;9.910;2023-03-20T11:41:49;12.07;;;5.77;;
38901;SDS011;24661;53.566;9.910;2023-03-20T11:44:26;11.07;;;5.73;;
38901;SDS011;24661;53.566;9.910;2023-03-20T11:46:54;14.27;;;4.97;;
38901;SDS011;24661;53.566;9.910;2023-03-20T11:49:26;8.70;;;5.37;;
38901;SDS011;24661;53.566;9.910;2023-03-20T11:51:52;10.67;;;4.90;;
38901;SDS011;24661;53.566;9.910;2023-03-20T11:54:21;8.23;;;5.57;;
38901;SDS011;24661;53.566;9.910;2023-03-20T11:56:56;9.73;;;5.53;;
38901;SDS011;24661;53.566;9.910;2023-03-20T11:59:33;9.43;;;5.77;;
38901;SDS011;24661;53.566;9.910;2023-03-20T12:02:11;11.47;;;5.90;;
38901;SDS011;24661;53.566;9.910;2023-03-20T12:04:43;9.30;;;5.47;;
38901;SDS011;24661;53.566;9.910;2023-03-20T12:07:28;12.57;;;7.13;;
38901;SDS011;24661;53.566;9.910;2023-03-20T12:10:00;9.87;;;5.87;;
38901;SDS011;24661;53.566;9.910;2023-03-20T12:22:55;10.13;;;5.70;;
38901;SDS011;24661;53.566;9.910;2023-03-20T12:25:36;12.00;;;5.10;;
38901;SDS011;24661;53.566;9.910;2023-03-20T12:28:21;9.23;;;5.27;;
38901;SDS011;24661;53.566;9.910;2023-03-20T12:36:45;10.93;;;5.47;;
38901;SDS011;24661;53.566;9.910;2023-03-20T12:39:14;8.07;;;5.50;;
38901;SDS011;24661;53.566;9.910;2023-03-20T12:41:51;12.83;;;5.00;;
38901;SDS011;24661;53.566;9.910;2023-03-20T12:47:30;10.27;;;5.27;;
38901;SDS011;24661;53.566;9.910;2023-03-20T12:50:20;7.40;;;4.80;;
38901;SDS011;24661;53.566;9.910;2023-03-20T13:01:31;7.67;;;5.57;;
38901;SDS011;24661;53.566;9.910;2023-03-20T13:07:19;10.33;;;4.87;;
38901;SDS011;24661;53.566;9.910;2023-03-20T13:12:39;9.83;;;5.13;;
38901;SDS011;24661;53.566;9.910;2023-03-20T15:25:43;7.37;;;3.90;;
38901;SDS011;24661;53.566;9.910;2023-03-20T15:28:21;10.57;;;4.40;;
38901;SDS011;24661;53.566;9.910;2023-03-20T15:30:51;8.97;;;3.40;;
38901;SDS011;24661;53.566;9.910;2023-03-20T15:33:53;8.33;;;4.30;;
38901;SDS011;24661;53.566;9.910;2023-03-20T15:36:16;8.77;;;4.83;;
38901;SDS011;24661;53.566;9.910;2023-03-20T15:38:45;6.50;;;4.30;;
38901;SDS011;24661;53.566;9.910;2023-03-20T15:41:26;8.23;;;3.73;;
38901;SDS011;24661;53.566;9.910;2023-03-20T15:44:01;10.60;;;4.80;;
38901;SDS011;24661;53.566;9.910;2023-03-20T15:46:39;8.43;;;4.57;;
38901;SDS011;24661;53.566;9.910;2023-03-20T15:49:05;7.73;;;4.63;;
38901;SDS011;24661;53.566;9.910;2023-03-20T15:51:30;13.00;;;4.93;;
38901;SDS011;24661;53.566;9.910;2023-03-20T15:53:59;11.10;;;4.40;;
38901;SDS011;24661;53.566;9.910;2023-03-20T15:56:31;10.87;;;5.23;;
38901;SDS011;24661;53.566;9.910;2023-03-20T15:59:00;12.20;;;5.53;;
38901;SDS011;24661;53.566;9.910;2023-03-20T16:01:27;7.67;;;4.67;;
38901;SDS011;24661;53.566;9.910;2023-03-20T16:03:56;14.47;;;5.13;;
38901;SDS011;24661;53.566;9.910;2023-03-20T16:06:24;7.53;;;4.40;;
38901;SDS011;24661;53.566;9.910;2023-03-20T16:09:00;11.63;;;5.53;;
38901;SDS011;24661;53.566;9.910;2023-03-20T16:11:37;12.60;;;5.90;;
38901;SDS011;24661;53.566;9.910;2023-03-20T16:14:11;13.43;;;5.63;;
38901;SDS011;24661;53.566;9.910;2023-03-20T16:16:49;9.70;;;5.80;;
38901;SDS011;24661;53.566;9.910;2023-03-20T16:19:19;12.90;;;6.03;;
38901;SDS011;24661;53.566;9.910;2023-03-20T16:22:08;10.23;;;5.57;;
38901;SDS011;24661;53.566;9.910;2023-03-20T16:24:53;12.50;;;5.90;;
38901;SDS011;24661;53.566;9.910;2023-03-20T16:27:23;12.50;;;7.20;;
38901;SDS011;24661;53.566;9.910;2023-03-20T16:30:03;18.00;;;8.40;;
38901;SDS011;24661;53.566;9.910;2023-03-20T16:32:39;13.93;;;6.37;;
38901;SDS011;24661;53.566;9.910;2023-03-20T16:35:15;13.53;;;6.83;;
38901;SDS011;24661;53.566;9.910;2023-03-20T16:37:48;12.77;;;7.00;;
38901;SDS011;24661;53.566;9.910;2023-03-20T16:40:19;10.13;;;5.47;;
38901;SDS011;24661;53.566;9.910;2023-03-20T16:42:52;11.23;;;5.67;;
38901;SDS011;24661;53.566;9.910;2023-03-20T16:47:46;11.93;;;6.43;;
38901;SDS011;24661;53.566;9.910;2023-03-20T16:50:17;11.97;;;6.40;;
38901;SDS011;24661;53.566;9.910;2023-03-20T16:53:01;14.73;;;6.50;;
38901;SDS011;24661;53.566;9.910;2023-03-20T16:55:28;15.80;;;6.40;;
38901;SDS011;24661;53.566;9.910;2023-03-20T16:58:05;14.10;;;7.00;;
38901;SDS011;24661;53.566;9.910;2023-03-20T17:00:40;14.73;;;7.90;;
38901;SDS011;24661;53.566;9.910;2023-03-20T17:05:44;15.63;;;6.53;;
38901;SDS011;24661;53.566;9.910;2023-03-20T17:08:26;9.40;;;6.23;;
38901;SDS011;24661;53.566;9.910;2023-03-20T17:11:02;8.53;;;5.40;;
38901;SDS011;24661;53.566;9.910;2023-03-20T17:13:29;13.07;;;6.63;;
38901;SDS011;24661;53.566;9.910;2023-03-20T17:15:55;16.47;;;7.07;;
38901;SDS011;24661;53.566;9.910;2023-03-20T17:18:23;10.97;;;7.13;;
38901;SDS011;24661;53.566;9.910;2023-03-20T17:20:48;14.57;;;6.57;;
38901;SDS011;24661;53.566;9.910;2023-03-20T17:23:16;13.07;;;6.97;;
38901;SDS011;24661;53.566;9.910;2023-03-20T17:25:45;12.13;;;7.10;;
38901;SDS011;24661;53.566;9.910;2023-03-20T17:28:18;14.57;;;6.93;;
38901;SDS011;24661;53.566;9.910;2023-03-20T17:30:47;13.00;;;6.93;;
38901;SDS011;24661;53.566;9.910;2023-03-20T17:33:13;11.00;;;6.63;;
38901;SDS011;24661;53.566;9.910;2023-03-20T17:35:41;14.47;;;8.30;;
38901;SDS011;24661;53.566;9.910;2023-03-20T17:38:19;11.27;;;7.63;;
38901;SDS011;24661;53.566;9.910;2023-03-20T17:40:46;12.63;;;7.13;;
38901;SDS011;24661;53.566;9.910;2023-03-20T17:43:13;17.53;;;7.93;;
38901;SDS011;24661;53.566;9.910;2023-03-20T17:45:40;16.97;;;9.30;;
38901;SDS011;24661;53.566;9.910;2023-03-20T17:48:10;17.53;;;10.10;;
38901;SDS011;24661;53.566;9.910;2023-03-20T17:50:40;18.13;;;8.13;;
38901;SDS011;24661;53.566;9.910;2023-03-20T17:53:28;11.37;;;8.20;;
38901;SDS011;24661;53.566;9.910;2023-03-20T17:55:54;12.93;;;8.83;;
38901;SDS011;24661;53.566;9.910;2023-03-20T17:58:21;15.87;;;7.87;;
38901;SDS011;24661;53.566;9.910;2023-03-20T18:00:48;15.73;;;9.13;;
38901;SDS011;24661;53.566;9.910;2023-03-20T18:03:14;13.87;;;7.87;;
38901;SDS011;24661;53.566;9.910;2023-03-20T18:05:42;11.80;;;7.77;;
38901;SDS011;24661;53.566;9.910;2023-03-20T18:08:11;17.00;;;8.00;;
38901;SDS011;24661;53.566;9.910;2023-03-20T18:10:39;9.47;;;6.90;;
38901;SDS011;24661;53.566;9.910;2023-03-20T18:13:05;13.60;;;7.57;;
38901;SDS011;24661;53.566;9.910;2023-03-20T18:15:31;9.93;;;7.50;;
38901;SDS011;24661;53.566;9.910;2023-03-20T18:17:57;14.57;;;8.43;;
38901;SDS011;24661;53.566;9.910;2023-03-20T18:22:48;13.00;;;7.50;;
38901;SDS011;24661;53.566;9.910;2023-03-20T18:25:14;12.73;;;7.53;;
38901;SDS011;24661;53.566;9.910;2023-03-20T18:27:40;18.23;;;8.97;;
38901;SDS011;24661;53.566;9.910;2023-03-20T18:30:13;13.50;;;7.40;;
38901;SDS011;24661;53.566;9.910;2023-03-20T18:32:41;13.40;;;8.93;;
38901;SDS011;24661;53.566;9.910;2023-03-20T18:35:07;11.10;;;7.87;;
38901;SDS011;24661;53.566;9.910;2023-03-20T18:37:33;11.70;;;8.43;;
38901;SDS011;24661;53.566;9.910;2023-03-20T18:39:59;11.37;;;8.07;;
38901;SDS011;24661;53.566;9.910;2023-03-20T18:42:26;12.57;;;7.83;;
38901;SDS011;24661;53.566;9.910;2023-03-20T18:44:54;17.70;;;9.23;;
38901;SDS011;24661;53.566;9.910;2023-03-20T18:47:19;11.13;;;8.93;;
38901;SDS011;24661;53.566;9.910;2023-03-20T18:49:45;16.27;;;8.73;;
38901;SDS011;24661;53.566;9.910;2023-03-20T18:52:11;17.80;;;9.00;;
38901;SDS011;24661;53.566;9.910;2023-03-20T18:54:38;13.87;;;10.00;;
38901;SDS011;24661;53.566;9.910;2023-03-20T18:57:04;14.47;;;9.40;;
38901;SDS011;24661;53.566;9.910;2023-03-20T18:59:30;14.87;;;10.30;;